Time;durP1;ratioP1;P1;durP2;ratioP2;P2;SDS_P1;SDS_P2;PMS_P1;PMS_P2;Temp;Humidity;BMP_temperature;BMP_pressure;BME280_temperature;BME280_humidity;BME280_pressure;Samples;Min_cycle;Max_cycle;Signal;HPM_P1;HPM_P2
2022/07/19 00:01:28;;;;;;;13.75;8.55;;;29.40;49.00;;;;;;5006377;28;20033;-58
2022/07/19 00:03:55;;;;;;;12.13;9.07;;;29.50;49.00;;;;;;5007071;28;20117;-58
2022/07/19 00:06:21;;;;;;;13.18;8.82;;;29.50;49.00;;;;;;5003966;28;20041;-58
2022/07/19 00:08:46;;;;;;;10.82;7.40;;;29.50;49.20;;;;;;5007211;28;20030;-58
2022/07/19 00:11:12;;;;;;;11.68;8.40;;;29.40;48.80;;;;;;5006609;28;20041;-58
2022/07/19 00:13:38;;;;;;;12.30;8.23;;;29.40;48.90;;;;;;5000346;28;20026;-58
2022/07/19 00:16:04;;;;;;;11.85;8.20;;;29.50;49.00;;;;;;5006353;28;20137;-58
2022/07/19 00:18:29;;;;;;;13.48;8.55;;;29.40;49.00;;;;;;5005052;28;20072;-58
2022/07/19 00:20:55;;;;;;;11.43;8.40;;;29.40;49.00;;;;;;5004368;28;20034;-58
2022/07/19 00:23:21;;;;;;;11.25;7.93;;;29.40;49.10;;;;;;5006458;28;20487;-58
2022/07/19 00:25:47;;;;;;;13.63;8.23;;;29.40;49.00;;;;;;5003274;28;20388;-57
2022/07/19 00:28:13;;;;;;;11.52;8.23;;;29.40;48.90;;;;;;5005932;28;20069;-57
2022/07/19 00:30:38;;;;;;;12.45;8.85;;;29.40;49.10;;;;;;5006765;28;20069;-56
2022/07/19 00:33:08;;;;;;;11.15;8.00;;;29.40;49.10;;;;;;5007064;28;20022;-56
2022/07/19 00:35:34;;;;;;;11.02;7.68;;;29.40;49.00;;;;;;5003088;28;20049;-56
2022/07/19 00:38:18;;;;;;;13.00;8.43;;;29.30;48.80;;;;;;5006558;28;20018;-56
2022/07/19 00:40:44;;;;;;;12.45;8.07;;;29.40;48.90;;;;;;5007579;28;20026;-56
2022/07/19 00:43:11;;;;;;;12.32;8.10;;;29.40;48.90;;;;;;5003931;28;20033;-56
2022/07/19 00:45:36;;;;;;;11.93;8.13;;;29.30;48.70;;;;;;5008096;28;20514;-56
2022/07/19 00:48:02;;;;;;;10.90;7.63;;;29.30;48.80;;;;;;5020694;28;20185;-57
2022/07/19 00:50:28;;;;;;;11.27;8.13;;;29.30;48.80;;;;;;5006448;28;20442;-56
2022/07/19 00:52:55;;;;;;;12.57;8.45;;;29.30;48.80;;;;;;5005513;28;20069;-56
2022/07/19 00:55:22;;;;;;;11.00;8.13;;;29.30;48.90;;;;;;5004082;28;20037;-56
2022/07/19 00:57:48;;;;;;;12.27;7.78;;;29.30;49.00;;;;;;5006470;28;20109;-57
2022/07/19 01:00:15;;;;;;;11.63;7.95;;;29.30;48.90;;;;;;5005298;28;20530;-56
2022/07/19 01:02:42;;;;;;;12.70;8.40;;;29.30;48.70;;;;;;5005807;28;20025;-56
2022/07/19 01:05:09;;;;;;;11.75;8.15;;;29.30;48.90;;;;;;5006260;28;20034;-57
2022/07/19 01:07:37;;;;;;;10.68;7.80;;;29.30;48.80;;;;;;5006635;28;20033;-56
2022/07/19 01:10:03;;;;;;;11.18;8.10;;;29.30;48.80;;;;;;5002296;28;20045;-56
2022/07/19 01:12:29;;;;;;;11.00;7.75;;;29.30;49.00;;;;;;5003021;28;20109;-56
2022/07/19 01:14:58;;;;;;;11.07;7.88;;;29.30;48.90;;;;;;5002117;28;20128;-56
2022/07/19 01:17:24;;;;;;;12.70;7.80;;;29.30;48.90;;;;;;5004941;28;20088;-56
2022/07/19 01:19:50;;;;;;;11.27;7.90;;;29.30;48.90;;;;;;5006574;28;20061;-56
2022/07/19 01:22:16;;;;;;;11.05;7.40;;;29.30;48.90;;;;;;5006191;28;20038;-56
2022/07/19 01:24:41;;;;;;;10.68;7.65;;;29.20;48.80;;;;;;5006007;28;20096;-56
2022/07/19 01:27:07;;;;;;;11.95;8.10;;;29.30;48.90;;;;;;5007031;28;20029;-56
2022/07/19 01:29:36;;;;;;;13.00;7.50;;;29.20;48.90;;;;;;5008055;28;20038;-56
2022/07/19 01:32:02;;;;;;;11.02;7.38;;;29.20;48.90;;;;;;5005197;28;20524;-56
2022/07/19 01:34:27;;;;;;;9.75;7.18;;;29.20;48.80;;;;;;5005729;28;20445;-56
2022/07/19 01:36:53;;;;;;;10.68;7.55;;;29.20;48.90;;;;;;5007839;28;20042;-56
2022/07/19 01:39:19;;;;;;;11.88;7.50;;;29.20;48.90;;;;;;5006109;28;20018;-56
2022/07/19 01:41:44;;;;;;;11.38;7.60;;;29.20;49.00;;;;;;5006189;28;20078;-56
2022/07/19 01:44:11;;;;;;;11.18;7.30;;;29.20;49.20;;;;;;5001734;28;20486;-56
2022/07/19 01:46:42;;;;;;;9.95;7.28;;;29.20;49.30;;;;;;5006007;28;20036;-57
2022/07/19 01:49:10;;;;;;;12.20;7.38;;;29.20;49.00;;;;;;5001053;28;20042;-56
2022/07/19 01:51:36;;;;;;;11.80;7.47;;;29.20;49.00;;;;;;4990139;28;20521;-56
2022/07/19 01:54:02;;;;;;;9.88;6.85;;;29.20;49.10;;;;;;5004877;28;20034;-56
2022/07/19 01:56:27;;;;;;;13.00;7.43;;;29.20;49.00;;;;;;5005076;28;20116;-56
2022/07/19 01:58:53;;;;;;;10.80;6.93;;;29.20;49.00;;;;;;5016145;28;20475;-56
2022/07/19 02:01:19;;;;;;;11.77;7.30;;;29.20;49.20;;;;;;5005489;28;20486;-57
2022/07/19 02:03:46;;;;;;;10.50;7.38;;;29.20;49.20;;;;;;5003950;28;20018;-57
2022/07/19 02:06:12;;;;;;;10.30;7.00;;;29.20;49.20;;;;;;5005078;28;20030;-56
2022/07/19 02:08:38;;;;;;;12.65;7.60;;;29.20;49.10;;;;;;5007576;28;20027;-56
2022/07/19 02:11:34;;;;;;;9.82;7.05;;;29.10;49.20;;;;;;5003949;28;20056;-57
2022/07/19 02:13:50;;;;;;;10.05;7.18;;;29.10;49.10;;;;;;5005442;28;20394;-56
2022/07/19 02:16:15;;;;;;;10.50;6.80;;;29.10;49.20;;;;;;5005193;28;20022;-56
2022/07/19 02:18:41;;;;;;;10.75;7.07;;;29.10;49.20;;;;;;5003831;28;20034;-56
2022/07/19 02:21:07;;;;;;;11.10;7.40;;;29.10;49.30;;;;;;5004967;28;20410;-56
2022/07/19 02:23:32;;;;;;;11.57;7.25;;;29.20;49.30;;;;;;5005568;28;20196;-57
2022/07/19 02:25:58;;;;;;;9.90;6.70;;;29.10;49.30;;;;;;5005927;28;20589;-56
2022/07/19 02:28:23;;;;;;;13.30;7.30;;;29.10;49.20;;;;;;5006104;28;20068;-57
2022/07/19 02:30:49;;;;;;;10.50;7.32;;;29.10;49.40;;;;;;5004158;28;20406;-56
2022/07/19 02:33:15;;;;;;;9.95;7.07;;;29.10;49.30;;;;;;5003916;28;20474;-56
2022/07/19 02:35:40;;;;;;;10.18;7.40;;;29.10;49.30;;;;;;5005858;28;20486;-56
2022/07/19 02:38:06;;;;;;;10.02;6.97;;;29.10;49.30;;;;;;5002903;28;20479;-56
2022/07/19 02:40:32;;;;;;;9.60;6.70;;;29.10;49.30;;;;;;5005897;28;20487;-56
2022/07/19 02:42:57;;;;;;;10.18;6.55;;;29.10;49.30;;;;;;5007009;28;20056;-56
2022/07/19 02:45:23;;;;;;;11.15;7.13;;;29.10;49.40;;;;;;5005356;28;20379;-56
2022/07/19 02:47:48;;;;;;;11.98;7.20;;;29.00;49.30;;;;;;5005617;28;20053;-56
2022/07/19 02:50:14;;;;;;;10.35;7.07;;;29.10;49.30;;;;;;5003702;28;20125;-56
2022/07/19 02:52:40;;;;;;;11.68;7.65;;;29.10;49.30;;;;;;5003683;28;20120;-56
2022/07/19 02:55:06;;;;;;;12.27;7.28;;;29.00;49.20;;;;;;5000255;28;20038;-56
2022/07/19 02:57:31;;;;;;;9.48;6.57;;;29.00;49.30;;;;;;5005976;28;20601;-56
2022/07/19 02:59:57;;;;;;;10.00;6.80;;;29.00;49.40;;;;;;5005034;28;20076;-56
2022/07/19 03:02:23;;;;;;;10.93;7.10;;;29.00;49.30;;;;;;5005112;28;20387;-57
2022/07/19 03:04:49;;;;;;;10.35;6.95;;;29.00;49.30;;;;;;5008887;28;20156;-56
2022/07/19 03:07:14;;;;;;;12.80;7.28;;;29.00;49.30;;;;;;5007630;28;20041;-57
2022/07/19 03:09:40;;;;;;;10.68;6.85;;;29.00;49.50;;;;;;5010425;28;20034;-56
2022/07/19 03:12:06;;;;;;;11.50;7.35;;;29.00;49.40;;;;;;5006440;28;20049;-56
2022/07/19 03:14:32;;;;;;;11.35;7.07;;;29.00;49.40;;;;;;5005329;28;20116;-56
2022/07/19 03:16:57;;;;;;;9.55;6.60;;;29.00;49.40;;;;;;5008032;28;20033;-57
2022/07/19 03:19:26;;;;;;;11.82;7.45;;;29.00;49.40;;;;;;5007771;28;20053;-56
2022/07/19 03:21:52;;;;;;;12.85;7.13;;;28.90;49.40;;;;;;5010289;28;20026;-56
2022/07/19 03:24:18;;;;;;;9.75;6.82;;;28.90;49.40;;;;;;5006906;28;20104;-56
2022/07/19 03:26:43;;;;;;;10.45;7.10;;;28.90;49.50;;;;;;5005538;28;20510;-56
2022/07/19 03:29:09;;;;;;;11.75;7.40;;;28.90;49.50;;;;;;5006867;28;20038;-56
2022/07/19 03:31:35;;;;;;;10.27;7.05;;;28.90;49.50;;;;;;5008472;28;20407;-56
2022/07/19 03:34:00;;;;;;;11.00;7.47;;;28.90;49.50;;;;;;5008425;28;20487;-56
2022/07/19 03:36:26;;;;;;;10.98;7.20;;;28.90;49.50;;;;;;5008201;28;20033;-57
2022/07/19 03:38:52;;;;;;;10.18;7.40;;;28.90;49.50;;;;;;5009007;28;20217;-56
2022/07/19 03:41:17;;;;;;;11.90;7.93;;;28.90;49.50;;;;;;5007164;28;20025;-56
2022/07/19 03:43:43;;;;;;;9.88;7.07;;;28.90;49.60;;;;;;5005965;28;20030;-57
2022/07/19 03:46:09;;;;;;;9.52;7.30;;;28.90;49.50;;;;;;5006825;28;20113;-56
2022/07/19 03:48:36;;;;;;;12.38;7.53;;;28.80;49.50;;;;;;5005450;28;20057;-56
2022/07/19 03:51:02;;;;;;;11.20;7.35;;;28.90;49.60;;;;;;5007754;28;20034;-57
2022/07/19 03:53:27;;;;;;;10.23;7.53;;;28.80;49.60;;;;;;5005848;28;20087;-56
2022/07/19 03:55:53;;;;;;;10.63;7.43;;;28.80;49.70;;;;;;5003263;28;20038;-56
2022/07/19 03:58:19;;;;;;;11.75;7.20;;;28.80;49.70;;;;;;5007738;28;20399;-56
2022/07/19 04:00:45;;;;;;;13.68;7.93;;;28.80;49.60;;;;;;5004004;28;20057;-56
2022/07/19 04:03:11;;;;;;;10.60;7.70;;;28.80;49.70;;;;;;5007411;28;20104;-56
2022/07/19 04:05:37;;;;;;;10.90;7.13;;;28.80;49.80;;;;;;5005814;28;20026;-57
2022/07/19 04:08:02;;;;;;;10.57;7.68;;;28.80;49.70;;;;;;5007763;28;20107;-57
2022/07/19 04:10:28;;;;;;;11.68;7.65;;;28.80;49.70;;;;;;5005057;28;20056;-56
2022/07/19 04:12:54;;;;;;;10.65;7.55;;;28.80;49.80;;;;;;5005014;28;20109;-56
2022/07/19 04:15:20;;;;;;;10.82;7.55;;;28.80;49.80;;;;;;5005530;28;20588;-57
2022/07/19 04:17:45;;;;;;;11.20;7.40;;;28.80;49.80;;;;;;5007100;28;20395;-57
2022/07/19 04:20:11;;;;;;;9.73;6.63;;;28.80;49.80;;;;;;5004912;28;20050;-56
2022/07/19 04:22:37;;;;;;;10.60;7.15;;;28.80;49.80;;;;;;5006851;28;20037;-56
2022/07/19 04:25:03;;;;;;;11.25;7.30;;;28.80;49.90;;;;;;5006394;28;20113;-57
2022/07/19 04:27:30;;;;;;;10.60;7.25;;;28.80;49.90;;;;;;5005081;28;20084;-56
2022/07/19 04:29:56;;;;;;;11.25;7.93;;;28.70;49.80;;;;;;5005747;28;20030;-56
2022/07/19 04:32:21;;;;;;;11.18;7.40;;;28.70;50.00;;;;;;4999484;28;20445;-58
2022/07/19 04:34:47;;;;;;;10.93;7.82;;;28.70;50.00;;;;;;5006775;28;20030;-56
2022/07/19 04:37:13;;;;;;;11.35;7.70;;;28.70;50.00;;;;;;5005302;28;20112;-57
2022/07/19 04:39:39;;;;;;;11.05;7.97;;;28.70;50.10;;;;;;5006020;28;20022;-56
2022/07/19 04:42:04;;;;;;;10.60;7.60;;;28.70;50.10;;;;;;5006149;28;20104;-57
2022/07/19 04:44:30;;;;;;;11.05;7.43;;;28.70;50.10;;;;;;5007452;28;20180;-56
2022/07/19 04:46:56;;;;;;;11.32;7.75;;;28.70;50.20;;;;;;5006288;28;20091;-56
2022/07/19 04:49:21;;;;;;;11.63;7.38;;;28.70;50.20;;;;;;5003843;28;20113;-56
2022/07/19 04:51:47;;;;;;;11.02;7.90;;;28.60;50.10;;;;;;5007302;28;20451;-56
2022/07/19 04:54:13;;;;;;;10.13;8.00;;;28.60;50.10;;;;;;5007907;28;20120;-57
2022/07/19 04:56:38;;;;;;;10.80;8.23;;;28.60;50.20;;;;;;5003961;28;20034;-56
2022/07/19 04:59:04;;;;;;;11.98;8.68;;;28.60;50.20;;;;;;5003903;28;20586;-57
2022/07/19 05:01:30;;;;;;;11.50;8.50;;;28.60;50.20;;;;;;5006575;28;20080;-56
2022/07/19 05:03:56;;;;;;;11.15;8.23;;;28.60;50.20;;;;;;5004652;28;20034;-56
2022/07/19 05:06:24;;;;;;;11.32;8.45;;;28.60;50.20;;;;;;5003909;28;20097;-57
2022/07/19 05:08:51;;;;;;;11.70;8.60;;;28.60;50.30;;;;;;5007313;28;20037;-56
2022/07/19 05:11:16;;;;;;;11.48;8.98;;;28.60;50.30;;;;;;5005876;28;20044;-57
2022/07/19 05:13:42;;;;;;;11.57;8.40;;;28.60;50.20;;;;;;5005258;28;20034;-57
2022/07/19 05:16:08;;;;;;;11.75;8.27;;;28.60;50.20;;;;;;5003172;28;20485;-56
2022/07/19 05:18:33;;;;;;;10.63;8.38;;;28.60;50.30;;;;;;5006572;28;20468;-57
2022/07/19 05:20:59;;;;;;;11.88;8.95;;;28.60;50.50;;;;;;5001365;28;20654;-56
2022/07/19 05:23:24;;;;;;;12.73;8.85;;;28.50;50.30;;;;;;5003579;28;20685;-56
2022/07/19 05:25:50;;;;;;;11.30;8.73;;;28.50;50.30;;;;;;5004967;28;20601;-56
2022/07/19 05:28:16;;;;;;;11.20;8.10;;;28.50;50.20;;;;;;5004146;28;20652;-56
2022/07/19 05:30:43;;;;;;;11.73;8.65;;;28.50;50.40;;;;;;5003196;28;20423;-56
2022/07/19 05:33:09;;;;;;;11.65;8.63;;;28.50;50.40;;;;;;5006389;28;20045;-57
2022/07/19 05:35:34;;;;;;;10.93;8.55;;;28.50;50.50;;;;;;5007025;28;20034;-56
2022/07/19 05:38:00;;;;;;;11.02;8.70;;;28.50;50.50;;;;;;5005571;28;20026;-57
2022/07/19 05:40:26;;;;;;;13.20;9.02;;;28.40;50.50;;;;;;5005773;28;20028;-57
2022/07/19 05:42:51;;;;;;;12.88;9.18;;;28.50;50.60;;;;;;5005845;28;20025;-56
2022/07/19 05:45:17;;;;;;;13.43;9.05;;;28.50;50.70;;;;;;5004698;28;20092;-56
2022/07/19 05:47:42;;;;;;;11.73;8.52;;;28.40;50.70;;;;;;5006858;28;20022;-56
2022/07/19 05:50:08;;;;;;;15.80;9.02;;;28.40;50.70;;;;;;5006912;28;20037;-56
2022/07/19 05:52:34;;;;;;;11.25;9.05;;;28.40;50.80;;;;;;5005418;28;20120;-56
2022/07/19 05:55:00;;;;;;;11.60;8.48;;;28.40;50.90;;;;;;5006416;28;20434;-56
2022/07/19 05:57:25;;;;;;;11.50;8.65;;;28.40;50.90;;;;;;5006867;28;20049;-57
2022/07/19 05:59:51;;;;;;;12.73;8.65;;;28.40;50.90;;;;;;5004391;28;20105;-56
2022/07/19 06:02:17;;;;;;;11.13;8.75;;;28.40;50.90;;;;;;5006534;28;20022;-56
2022/07/19 06:04:43;;;;;;;12.02;8.75;;;28.40;51.00;;;;;;5004905;28;20038;-56
2022/07/19 06:07:08;;;;;;;12.02;9.10;;;28.40;51.00;;;;;;5005902;28;20041;-56
2022/07/19 06:09:34;;;;;;;12.55;8.77;;;28.40;51.00;;;;;;5007521;28;20044;-56
2022/07/19 06:12:00;;;;;;;13.27;9.13;;;28.30;52.10;;;;;;5005818;28;20396;-56
2022/07/19 06:14:25;;;;;;;13.20;9.18;;;28.30;51.10;;;;;;5005964;28;20479;-56
2022/07/19 06:16:53;;;;;;;13.88;8.90;;;28.30;51.10;;;;;;5004409;28;20032;-56
2022/07/19 06:19:18;;;;;;;11.70;8.70;;;28.30;51.20;;;;;;5004677;28;20053;-56
2022/07/19 06:21:44;;;;;;;12.00;8.35;;;28.30;51.20;;;;;;5005700;28;20492;-57
2022/07/19 06:24:10;;;;;;;10.43;8.25;;;28.30;51.20;;;;;;5005383;28;20774;-57
2022/07/19 06:26:35;;;;;;;11.05;8.75;;;28.30;51.30;;;;;;5004760;28;20022;-56
2022/07/19 06:29:01;;;;;;;11.25;8.30;;;28.30;51.30;;;;;;5004122;28;20034;-56
2022/07/19 06:31:27;;;;;;;11.80;8.43;;;28.30;51.40;;;;;;5004203;28;20036;-56
2022/07/19 06:33:52;;;;;;;12.80;9.05;;;28.30;51.40;;;;;;5004643;28;20060;-56
2022/07/19 06:36:18;;;;;;;12.43;9.30;;;28.30;51.40;;;;;;5007131;28;20049;-56
2022/07/19 06:38:44;;;;;;;12.30;9.00;;;28.30;51.40;;;;;;5009023;28;20052;-56
2022/07/19 06:41:10;;;;;;;14.98;9.18;;;28.30;51.40;;;;;;5007712;28;20542;-56
2022/07/19 06:43:36;;;;;;;14.07;9.00;;;28.30;51.40;;;;;;5009269;28;20033;-56
2022/07/19 06:46:02;;;;;;;11.80;8.88;;;28.20;51.40;;;;;;5009258;28;20540;-56
2022/07/19 06:48:27;;;;;;;10.82;8.45;;;28.20;51.50;;;;;;5010353;28;20041;-57
2022/07/19 06:50:53;;;;;;;11.25;8.93;;;28.20;51.50;;;;;;5007983;28;20500;-56
2022/07/19 06:53:19;;;;;;;11.52;8.55;;;28.20;51.50;;;;;;5009325;28;20017;-56
2022/07/19 06:55:44;;;;;;;12.07;8.50;;;28.20;51.60;;;;;;5009472;28;20399;-56
2022/07/19 06:58:10;;;;;;;11.43;8.70;;;28.20;51.60;;;;;;5007703;28;20041;-56
2022/07/19 07:00:36;;;;;;;12.35;8.40;;;28.20;51.60;;;;;;5009750;28;20037;-56
2022/07/19 07:03:01;;;;;;;11.63;8.52;;;28.20;51.60;;;;;;5008866;28;20037;-56
2022/07/19 07:05:27;;;;;;;11.43;7.95;;;28.20;51.60;;;;;;5009458;28;20030;-56
2022/07/19 07:07:54;;;;;;;11.18;8.27;;;28.10;51.60;;;;;;5007829;28;20030;-56
2022/07/19 07:10:19;;;;;;;12.60;8.23;;;28.20;51.60;;;;;;5009401;28;20030;-56
2022/07/19 07:12:45;;;;;;;11.20;8.52;;;28.10;51.60;;;;;;5008398;28;20427;-56
2022/07/19 07:15:11;;;;;;;11.52;8.38;;;28.10;51.60;;;;;;5011343;28;20379;-56
2022/07/19 07:17:36;;;;;;;12.50;8.93;;;28.10;51.60;;;;;;5007627;28;20030;-56
2022/07/19 07:20:03;;;;;;;12.38;8.43;;;28.10;51.60;;;;;;5008146;28;20052;-56
2022/07/19 07:22:29;;;;;;;11.60;8.32;;;28.10;51.60;;;;;;5007536;28;20028;-56
2022/07/19 07:24:55;;;;;;;12.27;8.80;;;28.10;51.60;;;;;;5008872;28;20026;-56
2022/07/19 07:27:20;;;;;;;11.57;8.13;;;28.10;51.70;;;;;;5007516;28;20030;-56
2022/07/19 07:29:46;;;;;;;10.70;7.70;;;28.10;51.70;;;;;;5009062;28;20096;-56
2022/07/19 07:32:12;;;;;;;11.25;8.35;;;28.10;51.70;;;;;;5007448;28;22569;-56
2022/07/19 07:34:37;;;;;;;10.52;8.00;;;28.10;51.80;;;;;;5009231;28;20025;-56
2022/07/19 07:37:03;;;;;;;12.52;8.30;;;28.10;51.70;;;;;;5005435;28;20030;-57
2022/07/19 07:39:29;;;;;;;12.50;8.00;;;28.10;51.80;;;;;;5006200;28;20040;-56
2022/07/19 07:41:54;;;;;;;11.38;7.97;;;28.00;51.70;;;;;;5008187;28;20025;-56
2022/07/19 07:44:20;;;;;;;10.43;7.70;;;28.00;51.80;;;;;;5007508;28;20022;-56
2022/07/19 07:46:45;;;;;;;12.77;8.20;;;28.00;51.80;;;;;;5008254;28;20028;-56
2022/07/19 07:49:11;;;;;;;11.63;8.02;;;28.00;51.90;;;;;;5007132;28;20101;-56
2022/07/19 07:51:37;;;;;;;11.13;8.50;;;28.00;51.90;;;;;;5008024;28;20125;-56
2022/07/19 07:54:03;;;;;;;10.40;7.88;;;28.00;51.90;;;;;;5007968;28;20033;-57
2022/07/19 07:56:28;;;;;;;10.93;7.85;;;28.00;51.90;;;;;;5007552;28;20433;-56
2022/07/19 07:58:54;;;;;;;11.30;8.10;;;28.00;51.90;;;;;;5006458;28;20022;-56
2022/07/19 08:01:20;;;;;;;12.02;8.45;;;28.00;52.10;;;;;;5009103;28;20057;-56
2022/07/19 08:03:45;;;;;;;12.00;8.10;;;28.00;52.10;;;;;;5007624;28;20022;-56
2022/07/19 08:06:11;;;;;;;9.82;7.60;;;28.00;52.10;;;;;;5007475;28;20029;-56
2022/07/19 08:08:38;;;;;;;10.80;7.80;;;28.00;52.10;;;;;;5007554;28;20516;-56
2022/07/19 08:11:03;;;;;;;11.15;7.70;;;28.00;52.10;;;;;;5007583;28;20089;-57
2022/07/19 08:13:29;;;;;;;11.77;8.13;;;28.00;52.00;;;;;;5005565;28;20014;-56
2022/07/19 08:15:55;;;;;;;11.10;7.60;;;28.00;52.10;;;;;;5007386;28;20040;-56
2022/07/19 08:18:20;;;;;;;11.88;8.02;;;28.00;52.10;;;;;;5007198;28;20112;-56
2022/07/19 08:20:46;;;;;;;10.35;7.75;;;27.90;52.10;;;;;;5007240;28;20057;-56
2022/07/19 08:23:11;;;;;;;12.07;8.07;;;27.90;52.10;;;;;;5006650;28;20084;-56
2022/07/19 08:25:37;;;;;;;10.95;7.90;;;27.90;52.10;;;;;;5007514;28;20029;-56
2022/07/19 08:28:03;;;;;;;10.93;8.15;;;27.90;52.10;;;;;;5005785;28;20028;-57
2022/07/19 08:30:29;;;;;;;11.20;7.88;;;27.90;52.20;;;;;;5007920;28;20124;-56
2022/07/19 08:32:55;;;;;;;10.57;8.27;;;27.90;52.20;;;;;;5005694;28;20101;-56
2022/07/19 08:35:20;;;;;;;10.82;7.97;;;27.90;52.20;;;;;;5007641;28;20030;-56
2022/07/19 08:37:46;;;;;;;11.07;7.78;;;27.90;52.30;;;;;;5006764;28;20048;-56
2022/07/19 08:40:12;;;;;;;11.18;8.20;;;27.90;52.30;;;;;;5004516;28;20037;-56
2022/07/19 08:42:38;;;;;;;11.48;8.10;;;27.90;52.30;;;;;;5007092;28;20049;-56
2022/07/19 08:45:05;;;;;;;10.75;8.65;;;27.90;52.30;;;;;;5007142;28;20018;-56
2022/07/19 08:47:31;;;;;;;13.25;8.52;;;27.90;52.30;;;;;;5007647;28;20076;-56
2022/07/19 08:49:58;;;;;;;11.40;8.57;;;27.80;52.30;;;;;;5007152;28;20518;-56
2022/07/19 08:52:24;;;;;;;11.27;8.30;;;27.90;52.40;;;;;;5007926;28;20029;-57
2022/07/19 08:54:49;;;;;;;11.52;8.60;;;27.80;52.30;;;;;;5002384;28;20027;-56
2022/07/19 08:59:59;;;;;;;10.70;8.02;;;27.80;52.40;;;;;;5007323;28;20029;-56
2022/07/19 09:02:25;;;;;;;12.20;8.52;;;27.80;52.40;;;;;;5005450;28;20026;-56
2022/07/19 09:05:11;;;;;;;12.80;8.75;;;27.90;52.50;;;;;;5006148;28;20108;-56
2022/07/19 09:07:37;;;;;;;11.98;9.25;;;27.80;52.50;;;;;;5006923;28;20113;-56
2022/07/19 09:10:17;;;;;;;12.57;9.90;;;27.80;52.50;;;;;;5005593;28;20446;-56
2022/07/19 09:13:07;;;;;;;15.20;11.20;;;27.80;52.50;;;;;;5003829;28;20409;-56
2022/07/19 09:15:40;;;;;;;18.75;14.43;;;27.80;52.60;;;;;;5007681;28;20037;-56
2022/07/19 09:18:32;;;;;;;19.48;14.07;;;27.80;52.60;;;;;;5007578;28;20041;-56
2022/07/19 09:21:02;;;;;;;21.58;16.23;;;27.80;52.60;;;;;;5006605;28;20049;-56
2022/07/19 09:23:28;;;;;;;26.88;19.67;;;27.80;52.60;;;;;;5006359;28;20597;-56
2022/07/19 09:25:57;;;;;;;29.85;21.15;;;27.80;52.60;;;;;;5005435;28;20026;-57
2022/07/19 09:28:24;;;;;;;28.38;21.02;;;27.80;52.60;;;;;;5005568;28;20022;-56
2022/07/19 09:30:51;;;;;;;36.17;25.10;;;27.80;52.60;;;;;;5005870;28;20045;-59
2022/07/19 09:33:27;;;;;;;36.38;28.15;;;27.80;52.60;;;;;;5007238;28;20021;-56
2022/07/19 09:35:54;;;;;;;45.72;31.95;;;27.80;52.70;;;;;;5004580;28;20029;-59
2022/07/19 09:38:30;;;;;;;49.83;35.80;;;27.80;52.80;;;;;;5005805;28;20621;-58
2022/07/19 09:41:11;;;;;;;56.00;37.65;;;27.70;52.60;;;;;;5004701;28;20049;-58
2022/07/19 09:43:53;;;;;;;64.85;44.67;;;27.80;52.80;;;;;;5005996;28;20030;-58
2022/07/19 09:46:42;;;;;;;59.20;42.40;;;27.80;52.70;;;;;;5004428;28;20561;-58
2022/07/19 09:49:15;;;;;;;66.72;45.13;;;27.80;52.80;;;;;;5003473;28;20056;-59
2022/07/19 09:51:49;;;;;;;80.55;55.67;;;27.70;52.70;;;;;;5004185;28;20045;-58
2022/07/19 09:54:19;;;;;;;77.03;53.75;;;27.80;52.80;;;;;;5005653;28;20056;-58
2022/07/19 09:56:45;;;;;;;89.65;62.58;;;27.80;52.80;;;;;;5003381;28;20136;-56
2022/07/19 09:59:11;;;;;;;96.25;63.53;;;27.80;52.80;;;;;;5007169;28;20080;-56
2022/07/19 10:01:40;;;;;;;98.90;68.20;;;27.80;52.80;;;;;;5005283;28;20033;-55
2022/07/19 10:04:13;;;;;;;99.30;66.72;;;27.80;52.90;;;;;;5020004;28;20037;-56
2022/07/19 10:06:39;;;;;;;111.70;73.93;;;27.70;52.80;;;;;;5006766;28;20034;-55
2022/07/19 10:09:09;;;;;;;111.20;76.32;;;27.80;52.90;;;;;;5005372;28;20053;-56
2022/07/19 10:11:35;;;;;;;121.28;80.70;;;27.80;52.90;;;;;;5009570;28;20065;-56
2022/07/19 10:14:01;;;;;;;129.15;84.45;;;27.80;52.90;;;;;;5008352;28;20049;-56
2022/07/19 10:16:53;;;;;;;130.10;88.05;;;27.80;52.90;;;;;;5010156;28;20034;-56
2022/07/19 10:19:41;;;;;;;131.50;87.75;;;27.70;52.90;;;;;;5008479;28;20054;-56
2022/07/19 10:22:24;;;;;;;137.50;89.05;;;27.80;53.00;;;;;;5009082;28;20024;-56
2022/07/19 10:24:51;;;;;;;147.15;96.35;;;27.80;53.00;;;;;;5004820;28;20032;-56
2022/07/19 10:27:19;;;;;;;158.40;101.32;;;27.70;52.90;;;;;;5009872;28;20044;-56
2022/07/19 10:29:44;;;;;;;165.77;106.35;;;27.70;53.00;;;;;;5007006;28;20117;-56
2022/07/19 10:32:12;;;;;;;165.57;109.50;;;27.80;53.00;;;;;;5009471;28;20128;-56
2022/07/19 10:34:38;;;;;;;166.15;108.57;;;27.70;53.00;;;;;;5009546;28;20029;-56
2022/07/19 10:37:03;;;;;;;168.15;111.00;;;27.80;53.10;;;;;;5006274;28;20034;-56
2022/07/19 10:39:33;;;;;;;163.77;109.28;;;27.70;53.00;;;;;;5008637;28;20025;-55
2022/07/19 10:42:21;;;;;;;179.65;112.88;;;27.80;53.10;;;;;;5008766;28;20483;-55
2022/07/19 10:44:59;;;;;;;172.35;112.95;;;27.70;53.10;;;;;;5007899;28;20045;-56
2022/07/19 10:47:39;;;;;;;181.88;116.30;;;27.70;53.10;;;;;;5008781;28;20108;-58
2022/07/19 10:50:14;;;;;;;180.77;114.57;;;27.70;53.10;;;;;;5007353;28;20624;-58
2022/07/19 10:52:42;;;;;;;179.15;112.95;;;27.70;53.10;;;;;;5008794;28;20022;-56
2022/07/19 10:55:17;;;;;;;182.40;115.13;;;27.70;53.10;;;;;;5007255;28;20033;-56
2022/07/19 10:57:46;;;;;;;184.10;116.28;;;27.80;53.30;;;;;;5009408;28;20418;-56
2022/07/19 11:00:19;;;;;;;186.43;116.40;;;27.70;53.20;;;;;;5007473;28;20037;-56
2022/07/19 11:02:45;;;;;;;180.27;113.60;;;27.80;53.30;;;;;;5007095;28;20065;-56
2022/07/19 11:05:27;;;;;;;177.73;112.90;;;27.80;53.20;;;;;;5007317;28;20022;-56
2022/07/19 11:07:54;;;;;;;178.18;114.68;;;27.80;53.30;;;;;;5006301;28;20033;-56
2022/07/19 11:10:25;;;;;;;178.55;113.50;;;27.70;53.30;;;;;;5004066;28;20499;-55
2022/07/19 11:12:50;;;;;;;175.23;112.38;;;27.80;53.20;;;;;;5006988;28;20510;-55
2022/07/19 11:15:16;;;;;;;181.82;114.72;;;27.70;53.20;;;;;;5008745;28;20032;-56
2022/07/19 11:18:02;;;;;;;177.90;112.57;;;27.80;53.40;;;;;;5008938;28;20048;-56
2022/07/19 11:20:31;;;;;;;180.75;112.43;;;27.80;53.30;;;;;;5008237;28;20498;-56
2022/07/19 11:22:57;;;;;;;176.85;110.03;;;27.80;53.30;;;;;;5006964;28;20021;-56
2022/07/19 11:25:31;;;;;;;170.15;109.57;;;27.80;53.40;;;;;;5010004;28;20034;-56
2022/07/19 11:27:57;;;;;;;172.52;109.68;;;27.70;53.30;;;;;;5005629;28;20029;-56
2022/07/19 11:30:23;;;;;;;171.75;109.68;;;27.80;53.40;;;;;;5008405;28;20052;-56
2022/07/19 11:32:56;;;;;;;161.88;104.63;;;27.80;53.50;;;;;;5007499;28;20022;-55
2022/07/19 11:35:22;;;;;;;164.60;106.25;;;27.80;53.50;;;;;;5008275;28;20437;-56
2022/07/19 11:37:48;;;;;;;158.27;103.75;;;27.80;53.40;;;;;;5009156;28;20346;-55
2022/07/19 11:40:14;;;;;;;166.23;104.38;;;27.80;53.50;;;;;;5008684;28;20030;-56
2022/07/19 11:42:44;;;;;;;159.10;101.63;;;27.80;53.60;;;;;;5006566;28;20053;-56
2022/07/19 11:45:30;;;;;;;160.32;102.28;;;27.80;53.50;;;;;;5007890;28;20033;-56
2022/07/19 11:47:56;;;;;;;150.80;96.82;;;27.80;53.60;;;;;;5007556;28;20507;-55
2022/07/19 11:50:23;;;;;;;148.00;97.75;;;27.80;53.60;;;;;;5008710;28;20422;-55
2022/07/19 11:52:56;;;;;;;138.40;92.85;;;27.80;53.60;;;;;;5006789;28;20394;-56
2022/07/19 11:55:23;;;;;;;141.65;93.63;;;27.80;53.60;;;;;;5007047;28;20022;-55
2022/07/19 11:57:49;;;;;;;121.05;81.55;;;27.80;53.60;;;;;;5007067;28;20091;-55
2022/07/19 12:00:16;;;;;;;116.85;80.78;;;27.80;53.60;;;;;;5006376;28;20383;-55
2022/07/19 12:02:51;;;;;;;132.93;85.10;;;27.80;53.60;;;;;;5006657;28;20068;-56
2022/07/19 12:05:16;;;;;;;123.45;83.15;;;27.70;53.60;;;;;;5007376;28;20061;-55
2022/07/19 12:07:47;;;;;;;125.82;80.80;;;27.80;53.70;;;;;;5009224;28;20068;-55
2022/07/19 12:10:44;;;;;;;122.90;80.80;;;27.80;53.80;;;;;;5007778;28;20049;-56
2022/07/19 12:13:14;;;;;;;116.82;77.05;;;27.80;53.70;;;;;;5004326;28;20510;-55
2022/07/19 12:15:51;;;;;;;111.75;73.78;;;27.80;53.70;;;;;;5009512;28;20446;-55
2022/07/19 12:18:21;;;;;;;112.22;76.22;;;27.80;53.70;;;;;;5006794;28;20053;-55
2022/07/19 12:21:21;;;;;;;101.32;68.43;;;27.80;53.70;;;;;;5006636;28;20038;-55
2022/07/19 12:24:11;;;;;;;110.80;73.20;;;27.80;53.80;;;;;;5006508;28;20616;-56
2022/07/19 12:26:36;;;;;;;105.97;71.40;;;27.80;53.80;;;;;;5007246;28;20022;-55
2022/07/19 12:29:28;;;;;;;96.82;65.63;;;27.80;53.80;;;;;;5005125;28;20037;-55
2022/07/19 12:31:56;;;;;;;99.13;68.53;;;27.80;53.80;;;;;;5007447;28;20038;-56
2022/07/19 12:34:21;;;;;;;95.53;63.47;;;27.80;53.80;;;;;;5005692;28;20018;-55
2022/07/19 12:36:47;;;;;;;98.55;64.90;;;27.80;53.80;;;;;;5020048;28;20109;-56